Wetterdaten: Woche 20.05.02 - 26.05.02 (KW21)
Datum Zeit Temperatur Luftfeuchte Luftdruck Regenmenge Wind Richtung Taupunkt Windchill
20.05.2002 00:00 11.8 C 95 % 1020.1 hPa 0.0 l/m 0.0 km/h (0 Bft) N 11.1 C 11.8 C
20.05.2002 01:00 11.3 C 97 % 1020.1 hPa 0.0 l/m 0.0 km/h (0 Bft) N 10.8 C 11.3 C
20.05.2002 02:00 10.8 C 97 % 1019.9 hPa 0.0 l/m 0.0 km/h (0 Bft) N 10.4 C 10.8 C
20.05.2002 03:00 9.4 C 98 % 1019.0 hPa 0.0 l/m 0.0 km/h (0 Bft) O-SO 9.1 C 9.4 C
20.05.2002 04:00 9.2 C 100 % 1019.0 hPa 0.0 l/m 0.6 km/h (0 Bft) O-SO 9.2 C 9.2 C
20.05.2002 05:00 9.2 C 99 % 1018.3 hPa 0.0 l/m 0.0 km/h (0 Bft) N 9.1 C 9.2 C
20.05.2002 06:00 9.5 C 96 % 1018.2 hPa 0.0 l/m 0.0 km/h (0 Bft) N 8.9 C 9.5 C
20.05.2002 07:00 10.2 C 90 % 1018.6 hPa 0.0 l/m 0.1 km/h (0 Bft) W-NW 8.6 C 10.2 C
20.05.2002 08:00 10.8 C 87 % 1018.0 hPa 0.0 l/m 0.3 km/h (0 Bft) W-NW 8.8 C 10.8 C
20.05.2002 09:00 13.3 C 79 % 1018.0 hPa 0.0 l/m 2.4 km/h (1 Bft) W-NW 9.8 C 13.3 C
20.05.2002 10:00 16.0 C 69 % 1017.1 hPa 0.0 l/m 2.2 km/h (1 Bft) NO 10.4 C 16.0 C
20.05.2002 11:00 18.4 C 59 % 1017.0 hPa 0.0 l/m 10.0 km/h (2 Bft) O-SO 10.2 C 18.4 C
20.05.2002 12:00 18.7 C 57 % 1016.4 hPa 0.0 l/m 5.2 km/h (1 Bft) O-SO 9.9 C 18.7 C
20.05.2002 13:00 19.5 C 54 % 1015.8 hPa 0.0 l/m 7.3 km/h (2 Bft) O-SO 9.9 C 19.5 C
20.05.2002 14:00 21.1 C 48 % 1014.9 hPa 0.0 l/m 10.6 km/h (2 Bft) O-SO 9.6 C 21.1 C
20.05.2002 15:00 22.2 C 47 % 1014.3 hPa 0.0 l/m 9.0 km/h (2 Bft) O-SO 10.3 C 22.2 C
20.05.2002 16:00 22.2 C 47 % 1013.1 hPa 0.0 l/m 12.3 km/h (3 Bft) O-SO 10.5 C 22.2 C
20.05.2002 17:00 22.0 C 46 % 1012.8 hPa 0.0 l/m 12.9 km/h (3 Bft) O-SO 10.0 C 22.0 C
20.05.2002 18:00 21.2 C 48 % 1012.1 hPa 0.0 l/m 12.2 km/h (2 Bft) O-SO 9.8 C 21.2 C
20.05.2002 19:00 20.2 C 50 % 1011.8 hPa 0.0 l/m 7.3 km/h (2 Bft) O-SO 9.4 C 20.2 C
20.05.2002 20:00 18.1 C 58 % 1011.8 hPa 0.0 l/m 1.2 km/h (1 Bft) O-SO 9.6 C 18.1 C
20.05.2002 21:00 15.3 C 70 % 1011.8 hPa 0.0 l/m 5.2 km/h (1 Bft) O-SO 9.9 C 15.3 C
20.05.2002 22:00 13.6 C 78 % 1011.8 hPa 0.0 l/m 0.0 km/h (0 Bft) N 9.8 C 13.6 C
20.05.2002 23:00 12.2 C 84 % 1011.8 hPa 0.0 l/m 0.0 km/h (0 Bft) N 9.6 C 12.2 C
21.05.2002 00:00 11.3 C 88 % 1011.8 hPa 0.0 l/m 0.0 km/h (0 Bft) N 9.4 C 11.3 C
21.05.2002 01:00 10.4 C 91 % 1010.9 hPa 0.0 l/m 0.0 km/h (0 Bft) N 8.9 C 10.4 C
21.05.2002 02:00 9.5 C 96 % 1010.8 hPa 0.0 l/m 0.0 km/h (0 Bft) N 8.8 C 9.5 C
21.05.2002 03:00 8.8 C 98 % 1010.8 hPa 0.0 l/m 0.0 km/h (0 Bft) N 8.5 C 8.8 C
21.05.2002 04:00 8.2 C 99 % 1010.8 hPa 0.0 l/m 0.2 km/h (0 Bft) O 8.1 C 8.2 C
21.05.2002 05:00 7.7 C 100 % 1010.6 hPa 0.0 l/m 1.0 km/h (0 Bft) O 7.7 C 7.6 C
21.05.2002 06:00 7.9 C 100 % 1010.8 hPa 0.0 l/m 0.0 km/h (0 Bft) N 7.9 C 7.9 C
21.05.2002 07:00 9.5 C 98 % 1010.8 hPa 0.0 l/m 0.0 km/h (0 Bft) N 9.2 C 9.5 C
21.05.2002 08:00 12.0 C 89 % 1010.8 hPa 0.0 l/m 0.1 km/h (0 Bft) N 10.2 C 12.0 C
21.05.2002 09:00 14.3 C 76 % 1010.3 hPa 0.0 l/m 0.6 km/h (0 Bft) W-NW 10.1 C 14.3 C
21.05.2002 10:00 16.4 C 69 % 1009.7 hPa 0.0 l/m 2.3 km/h (1 Bft) W-NW 10.7 C 16.4 C
21.05.2002 11:00 19.2 C 63 % 1008.7 hPa 0.0 l/m 2.6 km/h (1 Bft) O-SO 12.0 C 19.2 C
21.05.2002 12:00 21.5 C 56 % 1008.7 hPa 0.0 l/m 6.1 km/h (2 Bft) O-SO 12.4 C 21.5 C
21.05.2002 13:00 23.5 C 44 % 1007.8 hPa 0.0 l/m 2.4 km/h (1 Bft) O-SO 10.6 C 23.5 C
21.05.2002 14:00 25.3 C 41 % 1007.5 hPa 0.0 l/m 4.4 km/h (1 Bft) SO 11.0 C 25.3 C
21.05.2002 15:00 26.8 C 37 % 1006.6 hPa 0.0 l/m 4.3 km/h (1 Bft) O-SO 11.0 C 26.8 C
21.05.2002 16:00 27.0 C 37 % 1005.9 hPa 0.0 l/m 5.5 km/h (1 Bft) O-SO 11.2 C 27.0 C
21.05.2002 17:00 26.9 C 38 % 1005.6 hPa 0.0 l/m 4.8 km/h (1 Bft) O-SO 11.5 C 26.9 C
21.05.2002 18:00 26.1 C 39 % 1005.3 hPa 0.0 l/m 10.3 km/h (2 Bft) O-SO 11.1 C 26.1 C
21.05.2002 19:00 24.6 C 48 % 1004.8 hPa 0.0 l/m 6.6 km/h (2 Bft) O-SO 12.7 C 24.6 C
21.05.2002 20:00 21.8 C 57 % 1005.6 hPa 0.0 l/m 5.0 km/h (1 Bft) O-SO 13.0 C 21.8 C
21.05.2002 21:00 18.8 C 67 % 1005.6 hPa 0.0 l/m 5.5 km/h (1 Bft) O-SO 12.5 C 18.8 C
21.05.2002 22:00 16.9 C 76 % 1005.6 hPa 0.0 l/m 0.0 km/h (0 Bft) N 12.6 C 16.9 C
21.05.2002 23:00 15.5 C 80 % 1005.6 hPa 0.0 l/m 0.0 km/h (0 Bft) N 12.1 C 15.5 C
22.05.2002 00:00 14.7 C 85 % 1005.6 hPa 0.0 l/m 0.9 km/h (0 Bft) O-SO 12.3 C 14.7 C
22.05.2002 01:00 14.6 C 88 % 1005.5 hPa 0.0 l/m 0.4 km/h (0 Bft) O 12.6 C 14.6 C
22.05.2002 02:00 13.1 C 93 % 1005.6 hPa 0.0 l/m 0.4 km/h (0 Bft) O 12.0 C 13.1 C
22.05.2002 03:00 12.1 C 97 % 1004.9 hPa 0.0 l/m 0.0 km/h (0 Bft) N 11.6 C 12.1 C
22.05.2002 04:00 11.2 C 99 % 1004.5 hPa 0.0 l/m 1.7 km/h (1 Bft) O-SO 11.0 C 11.2 C
22.05.2002 05:00 10.2 C 100 % 1004.5 hPa 0.0 l/m 0.5 km/h (0 Bft) O-SO 10.2 C 10.2 C
22.05.2002 06:00 10.5 C 99 % 1004.6 hPa 0.0 l/m 0.0 km/h (0 Bft) N 10.3 C 10.5 C
22.05.2002 07:00 12.3 C 95 % 1004.7 hPa 0.0 l/m 0.0 km/h (0 Bft) N 11.5 C 12.3 C
22.05.2002 08:00 14.6 C 86 % 1004.8 hPa 0.0 l/m 0.1 km/h (0 Bft) N 12.2 C 14.6 C
22.05.2002 09:00 17.5 C 71 % 1004.5 hPa 0.0 l/m 0.1 km/h (0 Bft) N 12.1 C 17.5 C
22.05.2002 10:00 19.7 C 61 % 1004.5 hPa 0.0 l/m 0.9 km/h (0 Bft) W-NW 12.0 C 19.7 C
22.05.2002 11:00 21.8 C 55 % 1004.0 hPa 0.0 l/m 0.8 km/h (0 Bft) O-SO 12.2 C 21.8 C
22.05.2002 12:00 23.2 C 50 % 1003.5 hPa 0.0 l/m 1.1 km/h (1 Bft) W-NW 12.2 C 23.2 C
22.05.2002 13:00 24.5 C 46 % 1003.5 hPa 0.0 l/m 2.5 km/h (1 Bft) NW 12.0 C 24.5 C
22.05.2002 14:00 25.1 C 43 % 1003.5 hPa 0.0 l/m 7.4 km/h (2 Bft) NW 11.4 C 25.1 C
22.05.2002 15:00 23.2 C 47 % 1003.5 hPa 0.0 l/m 22.6 km/h (4 Bft) NW 11.1 C 23.2 C
22.05.2002 16:00 21.2 C 47 % 1003.5 hPa 0.0 l/m 16.9 km/h (3 Bft) W-NW 9.6 C 21.2 C
22.05.2002 17:00 20.2 C 46 % 1003.5 hPa 0.0 l/m 3.3 km/h (1 Bft) SO 8.1 C 20.2 C
22.05.2002 18:00 18.5 C 52 % 1003.5 hPa 0.0 l/m 1.0 km/h (0 Bft) NW 8.4 C 18.5 C
22.05.2002 19:00 17.6 C 61 % 1002.7 hPa 0.0 l/m 0.8 km/h (0 Bft) O-SO 9.9 C 17.6 C
22.05.2002 20:00 17.4 C 65 % 1002.5 hPa 0.0 l/m 0.0 km/h (0 Bft) N 10.7 C 17.4 C
22.05.2002 21:00 16.1 C 70 % 1002.7 hPa 0.0 l/m 0.0 km/h (0 Bft) N 10.7 C 16.1 C
22.05.2002 22:00 15.4 C 71 % 1003.6 hPa 0.0 l/m 0.3 km/h (0 Bft) O 10.3 C 15.4 C
22.05.2002 23:00 16.1 C 68 % 1004.4 hPa 0.0 l/m 1.1 km/h (1 Bft) NW 10.1 C 16.1 C
23.05.2002 00:00 15.8 C 73 % 1004.5 hPa 0.0 l/m 2.4 km/h (1 Bft) W-NW 10.9 C 15.8 C
23.05.2002 01:00 15.2 C 77 % 1005.1 hPa 0.0 l/m 19.4 km/h (3 Bft) NW 11.2 C 15.2 C
23.05.2002 02:00 13.8 C 81 % 1005.9 hPa 0.0 l/m 12.3 km/h (3 Bft) NW 10.6 C 13.8 C
23.05.2002 03:00 12.5 C 79 % 1006.1 hPa 0.0 l/m 14.5 km/h (3 Bft) NW 9.1 C 12.5 C
23.05.2002 04:00 11.8 C 82 % 1005.6 hPa 0.0 l/m 4.3 km/h (1 Bft) W-NW 8.8 C 11.8 C
23.05.2002 05:00 10.8 C 86 % 1005.4 hPa 0.0 l/m 0.9 km/h (0 Bft) W-NW 8.6 C 10.8 C
23.05.2002 06:00 11.4 C 83 % 1005.6 hPa 0.0 l/m 0.4 km/h (0 Bft) W 8.6 C 11.4 C
23.05.2002 07:00 12.6 C 77 % 1005.6 hPa 0.0 l/m 1.2 km/h (1 Bft) NW 8.6 C 12.6 C
23.05.2002 08:00 12.7 C 78 % 1006.4 hPa 0.0 l/m 7.4 km/h (2 Bft) W-NW 8.9 C 12.7 C
23.05.2002 09:00 12.3 C 81 % 1006.6 hPa 0.0 l/m 10.5 km/h (2 Bft) NW 9.1 C 12.3 C
23.05.2002 10:00 11.9 C 86 % 1007.1 hPa 0.0 l/m 3.7 km/h (1 Bft) W-NW 9.6 C 11.9 C
23.05.2002 11:00 11.9 C 86 % 1007.4 hPa 0.0 l/m 4.6 km/h (1 Bft) W-NW 9.6 C 11.9 C
23.05.2002 12:00 12.2 C 86 % 1006.6 hPa 0.0 l/m 0.9 km/h (0 Bft) NW 9.9 C 12.2 C
23.05.2002 13:00 13.0 C 83 % 1006.6 hPa 0.0 l/m 2.8 km/h (1 Bft) W-NW 10.2 C 13.0 C
23.05.2002 14:00 12.7 C 85 % 1007.4 hPa 0.0 l/m 3.3 km/h (1 Bft) NW 10.2 C 12.7 C
23.05.2002 15:00 12.2 C 86 % 1007.7 hPa 0.0 l/m 0.9 km/h (0 Bft) W 9.8 C 12.2 C
23.05.2002 16:00 11.2 C 92 % 1007.9 hPa 1.8 l/m 3.4 km/h (1 Bft) NW 10.0 C 11.2 C
23.05.2002 17:00 10.6 C 98 % 1008.7 hPa 2.7 l/m 13.7 km/h (3 Bft) NW 10.3 C 10.6 C
23.05.2002 18:00 10.4 C 99 % 1009.7 hPa 1.2 l/m 13.3 km/h (3 Bft) NW 10.2 C 10.4 C
23.05.2002 19:00 10.3 C 97 % 1009.9 hPa 0.3 l/m 12.1 km/h (2 Bft) NW 9.9 C 10.2 C
23.05.2002 20:00 9.7 C 99 % 1011.4 hPa 0.9 l/m 4.3 km/h (1 Bft) W 9.6 C 9.3 C
23.05.2002 21:00 9.3 C 100 % 1011.8 hPa 1.2 l/m 2.4 km/h (1 Bft) SO 9.3 C 9.1 C
23.05.2002 22:00 9.2 C 100 % 1012.8 hPa 1.2 l/m 1.9 km/h (1 Bft) SO 9.2 C 9.0 C
23.05.2002 23:00 9.2 C 100 % 1012.9 hPa 0.9 l/m 1.3 km/h (1 Bft) SO 9.2 C 9.1 C
24.05.2002 00:00 9.1 C 100 % 1013.9 hPa 0.9 l/m 0.7 km/h (0 Bft) SO 9.1 C 9.1 C
24.05.2002 01:00 9.1 C 100 % 1013.9 hPa 0.9 l/m 0.6 km/h (0 Bft) SO 9.1 C 9.1 C
24.05.2002 02:00 9.1 C 100 % 1013.9 hPa 0.3 l/m 0.8 km/h (0 Bft) SO 9.1 C 9.0 C
24.05.2002 03:00 9.2 C 100 % 1013.9 hPa 0.3 l/m 0.3 km/h (0 Bft) SO 9.2 C 9.2 C
24.05.2002 04:00 9.3 C 100 % 1013.9 hPa 0.0 l/m 0.3 km/h (0 Bft) S 9.3 C 9.3 C
24.05.2002 05:00 9.1 C 100 % 1013.9 hPa 0.0 l/m 2.8 km/h (1 Bft) SO 9.1 C 8.8 C
24.05.2002 06:00 8.8 C 100 % 1013.9 hPa 0.0 l/m 3.1 km/h (1 Bft) SO 8.8 C 8.5 C
24.05.2002 07:00 9.3 C 100 % 1014.1 hPa 0.0 l/m 0.5 km/h (0 Bft) SO 9.3 C 9.3 C
24.05.2002 08:00 9.8 C 98 % 1014.8 hPa 0.0 l/m 1.2 km/h (1 Bft) SO 9.6 C 9.7 C
24.05.2002 09:00 10.7 C 94 % 1014.9 hPa 0.0 l/m 2.5 km/h (1 Bft) W 9.7 C 10.7 C
24.05.2002 10:00 11.8 C 90 % 1014.9 hPa 0.0 l/m 3.3 km/h (1 Bft) O 10.2 C 11.8 C
24.05.2002 11:00 13.6 C 83 % 1014.1 hPa 0.0 l/m 6.3 km/h (2 Bft) SO 10.7 C 13.6 C
24.05.2002 12:00 15.2 C 74 % 1013.9 hPa 0.0 l/m 4.9 km/h (1 Bft) SO 10.5 C 15.2 C
24.05.2002 13:00 15.7 C 70 % 1013.9 hPa 0.0 l/m 3.8 km/h (1 Bft) SO 10.1 C 15.7 C
24.05.2002 14:00 18.6 C 53 % 1013.6 hPa 0.0 l/m 6.5 km/h (2 Bft) SO 8.9 C 18.6 C
24.05.2002 15:00 17.9 C 52 % 1012.8 hPa 0.0 l/m 3.5 km/h (1 Bft) W 8.0 C 17.9 C
24.05.2002 16:00 19.2 C 50 % 1012.8 hPa 0.0 l/m 4.7 km/h (1 Bft) O-SO 8.5 C 19.2 C
24.05.2002 17:00 19.5 C 49 % 1012.8 hPa 0.0 l/m 1.0 km/h (0 Bft) SO 8.5 C 19.5 C
24.05.2002 18:00 19.9 C 51 % 1012.8 hPa 0.0 l/m 0.4 km/h (0 Bft) S-SW 9.5 C 19.9 C
24.05.2002 19:00 18.6 C 56 % 1012.8 hPa 0.0 l/m 0.3 km/h (0 Bft) O-SO 9.7 C 18.6 C
24.05.2002 20:00 17.4 C 67 % 1012.8 hPa 0.0 l/m 0.4 km/h (0 Bft) SO 11.1 C 17.4 C
24.05.2002 21:00 14.0 C 80 % 1012.8 hPa 0.0 l/m 3.6 km/h (1 Bft) O-SO 10.5 C 14.0 C
24.05.2002 22:00 13.2 C 86 % 1012.9 hPa 0.0 l/m 0.3 km/h (0 Bft) O-SO 10.9 C 13.2 C
24.05.2002 23:00 13.2 C 89 % 1013.9 hPa 0.0 l/m 0.0 km/h (0 Bft) N 11.4 C 13.2 C
25.05.2002 00:00 12.7 C 91 % 1013.9 hPa 0.0 l/m 1.3 km/h (1 Bft) O-SO 11.2 C 12.7 C
25.05.2002 01:00 12.4 C 92 % 1013.9 hPa 0.0 l/m 1.4 km/h (1 Bft) O-SO 11.2 C 12.4 C
25.05.2002 02:00 12.2 C 93 % 1013.9 hPa 0.0 l/m 2.7 km/h (1 Bft) O-SO 11.0 C 12.2 C
25.05.2002 03:00 12.2 C 93 % 1013.9 hPa 0.0 l/m 4.2 km/h (1 Bft) O-SO 11.1 C 12.2 C
25.05.2002 04:00 11.3 C 97 % 1013.0 hPa 0.0 l/m 0.0 km/h (0 Bft) N 10.8 C 11.3 C
25.05.2002 05:00 11.1 C 100 % 1012.8 hPa 0.0 l/m 1.0 km/h (0 Bft) O-SO 11.1 C 11.1 C
25.05.2002 06:00 11.7 C 98 % 1012.8 hPa 0.0 l/m 0.9 km/h (0 Bft) O-SO 11.4 C 11.7 C
25.05.2002 07:00 12.3 C 95 % 1013.0 hPa 0.0 l/m 0.0 km/h (0 Bft) N 11.6 C 12.3 C
25.05.2002 08:00 13.3 C 90 % 1013.0 hPa 0.0 l/m 0.5 km/h (0 Bft) O 11.6 C 13.3 C
25.05.2002 09:00 15.7 C 75 % 1012.8 hPa 0.0 l/m 0.1 km/h (0 Bft) N 11.4 C 15.7 C
25.05.2002 10:00 15.1 C 74 % 1013.2 hPa 0.0 l/m 13.4 km/h (3 Bft) NW 10.4 C 15.1 C
25.05.2002 11:00 12.0 C 86 % 1014.1 hPa 0.0 l/m 25.5 km/h (4 Bft) NW 9.7 C 12.0 C
25.05.2002 12:00 10.8 C 89 % 1014.9 hPa 0.0 l/m 24.2 km/h (4 Bft) NW 9.1 C 10.8 C
25.05.2002 13:00 9.9 C 88 % 1015.4 hPa 0.0 l/m 23.0 km/h (4 Bft) NW 8.0 C 8.1 C
25.05.2002 14:00 9.1 C 90 % 1016.3 hPa 0.3 l/m 21.9 km/h (4 Bft) NW 7.6 C 6.3 C
25.05.2002 15:00 8.4 C 97 % 1017.6 hPa 2.1 l/m 3.4 km/h (1 Bft) W-NW 7.9 C 8.1 C
25.05.2002 16:00 8.2 C 97 % 1018.0 hPa 0.9 l/m 3.3 km/h (1 Bft) NW 7.8 C 7.8 C
25.05.2002 17:00 9.3 C 93 % 1018.0 hPa 0.3 l/m 1.6 km/h (1 Bft) W-NW 8.2 C 9.2 C
25.05.2002 18:00 11.1 C 83 % 1018.0 hPa 0.0 l/m 1.9 km/h (1 Bft) NW 8.4 C 11.1 C
25.05.2002 19:00 11.3 C 83 % 1017.1 hPa 0.0 l/m 6.1 km/h (2 Bft) NW 8.4 C 11.3 C
25.05.2002 20:00 10.2 C 84 % 1017.0 hPa 0.0 l/m 0.1 km/h (0 Bft) N 7.6 C 10.2 C
25.05.2002 21:00 8.2 C 94 % 1017.0 hPa 0.0 l/m 2.7 km/h (1 Bft) O-SO 7.4 C 7.7 C
25.05.2002 22:00 7.0 C 100 % 1017.0 hPa 0.0 l/m 2.1 km/h (1 Bft) O-SO 7.0 C 6.7 C
25.05.2002 23:00 6.3 C 100 % 1017.0 hPa 0.0 l/m 0.0 km/h (0 Bft) N 6.3 C 6.3 C
26.05.2002 00:00 6.0 C 100 % 1017.0 hPa 0.0 l/m 0.0 km/h (0 Bft) N 6.0 C 6.0 C
26.05.2002 01:00 6.3 C 100 % 1016.4 hPa 0.0 l/m 2.5 km/h (1 Bft) O-SO 6.3 C 6.2 C
26.05.2002 02:00 6.3 C 100 % 1015.9 hPa 0.0 l/m 0.3 km/h (0 Bft) SO 6.3 C 6.3 C
26.05.2002 03:00 6.0 C 100 % 1015.9 hPa 0.0 l/m 1.0 km/h (0 Bft) SO 6.0 C 5.9 C
26.05.2002 04:00 5.8 C 100 % 1015.0 hPa 0.0 l/m 0.7 km/h (0 Bft) W-NW 5.8 C 5.7 C
26.05.2002 05:00 6.1 C 100 % 1014.1 hPa 0.0 l/m 0.1 km/h (0 Bft) N 6.1 C 6.1 C
26.05.2002 06:00 6.2 C 100 % 1013.9 hPa 0.0 l/m 0.1 km/h (0 Bft) N 6.2 C 6.2 C
26.05.2002 07:00 6.8 C 100 % 1013.9 hPa 0.0 l/m 0.2 km/h (0 Bft) NW 6.8 C 6.8 C
26.05.2002 08:00 7.4 C 96 % 1013.1 hPa 0.0 l/m 0.5 km/h (0 Bft) W-NW 6.8 C 7.3 C
26.05.2002 09:00 8.1 C 92 % 1012.8 hPa 0.0 l/m 0.0 km/h (0 Bft) N 7.0 C 8.1 C
26.05.2002 10:00 8.7 C 90 % 1012.8 hPa 0.0 l/m 0.2 km/h (0 Bft) W-NW 7.1 C 8.7 C
26.05.2002 11:00 10.5 C 82 % 1012.8 hPa 0.0 l/m 1.1 km/h (1 Bft) W-SW 7.5 C 10.5 C
26.05.2002 12:00 12.2 C 73 % 1011.9 hPa 0.0 l/m 5.2 km/h (1 Bft) O-SO 7.5 C 12.2 C
26.05.2002 13:00 15.0 C 65 % 1011.1 hPa 0.0 l/m 5.1 km/h (1 Bft) O-SO 8.4 C 15.0 C
26.05.2002 14:00 17.6 C 52 % 1010.8 hPa 0.0 l/m 6.4 km/h (2 Bft) O-SO 7.6 C 17.6 C
26.05.2002 15:00 18.9 C 48 % 1009.8 hPa 0.0 l/m 8.1 km/h (2 Bft) O-SO 7.6 C 18.9 C
26.05.2002 16:00 19.2 C 46 % 1009.0 hPa 0.0 l/m 5.8 km/h (2 Bft) O 7.4 C 19.2 C
26.05.2002 17:00 18.4 C 46 % 1008.7 hPa 0.0 l/m 13.0 km/h (3 Bft) NW 6.7 C 18.4 C
26.05.2002 18:00 17.2 C 50 % 1008.7 hPa 0.0 l/m 16.1 km/h (3 Bft) NW 6.7 C 17.2 C
26.05.2002 19:00 16.1 C 54 % 1008.7 hPa 0.0 l/m 7.4 km/h (2 Bft) NW 6.8 C 16.1 C
26.05.2002 20:00 14.7 C 60 % 1008.7 hPa 0.0 l/m 3.2 km/h (1 Bft) O-SO 6.9 C 14.7 C
26.05.2002 21:00 13.1 C 75 % 1009.2 hPa 0.0 l/m 4.8 km/h (1 Bft) O-SO 8.8 C 13.1 C
26.05.2002 22:00 12.4 C 83 % 1009.7 hPa 0.0 l/m 4.0 km/h (1 Bft) O-SO 9.6 C 12.4 C
26.05.2002 23:00 11.6 C 95 % 1010.3 hPa 1.2 l/m 2.9 km/h (1 Bft) O-SO 10.9 C 11.6 C
Min-Datum _ 26.05.02 21.05.02 22.05.02 - 20.05.02 - 26.05.02 26.05.02
_ Min-Zeit 00:06 16:31 19:14 - 00:00 - 15:36 04:36
Minimum _ 5.5 C 31 % 1002.5 hPa - 0.0 km/h (0 Bft) - 5.1 C 4.5 C
Max-Datum _ 21.05.02 20.05.02 20.05.02 23.05.02 23.05.02 - 21.05.02 21.05.02
_ Max-Zeit 15:43 04:03 00:00 16:00 01:30 - 20:46 15:43
Maximum _ 27.3 C 100 % 1020.1 hPa 2.7 l/m 44.7 km/h
NW (6 Bft)
- 13.6 C 27.3 C
Durchschnitt _ 13.8 C 79 % 1011.0 hPa #17.4 l/m 3.9 km/h (1 Bft) O-SO 9.6 C 13.8 C

Durchschnitt Minimum Temp.13.0 C
Durchschnitt Maximum Temp.14.7 C
© Kaiko 2002